Time;durP1;ratioP1;P1;durP2;ratioP2;P2;SDS_P1;SDS_P2;PMS_P1;PMS_P2;Temp;Humidity;BMP_temperature;BMP_pressure;BME280_temperature;BME280_humidity;BME280_pressure;Samples;Min_cycle;Max_cycle;Signal;HPM_P1;HPM_P2
2022/01/31 00:00:41;;;;;;;27.08;17.75;;;;;;;2.23;100.00;98526.91;2107073;28;20184;-74
2022/01/31 00:01:45;;;;;;;34.60;18.08;;;;;;;2.19;100.00;98512.69;2106985;28;20270;-74
2022/01/31 00:02:52;;;;;;;29.67;18.10;;;;;;;2.18;100.00;98516.38;2105969;28;20200;-74
2022/01/31 00:03:57;;;;;;;30.60;19.70;;;;;;;2.17;100.00;98527.97;2098313;28;20609;-74
2022/01/31 00:05:01;;;;;;;32.55;19.17;;;;;;;2.21;100.00;98563.22;2106455;28;20679;-74
2022/01/31 00:06:03;;;;;;;33.30;18.05;;;;;;;2.17;100.00;98520.06;2105528;28;20296;-74
2022/01/31 00:07:06;;;;;;;32.40;18.60;;;;;;;2.13;100.00;98523.44;2106437;28;20177;-74
2022/01/31 00:08:10;;;;;;;25.85;18.63;;;;;;;2.12;100.00;98541.06;2107135;28;20189;-74
2022/01/31 00:09:17;;;;;;;38.38;19.70;;;;;;;2.16;100.00;98526.34;2106214;28;20671;-74
2022/01/31 00:10:27;;;;;;;29.27;19.10;;;;;;;2.12;100.00;98521.88;2106264;28;20224;-75
2022/01/31 00:11:41;;;;;;;35.85;19.05;;;;;;;2.07;100.00;98514.72;2106553;28;20173;-75
2022/01/31 00:12:51;;;;;;;35.10;19.20;;;;;;;2.01;100.00;98515.75;2105842;28;20197;-75
2022/01/31 00:14:03;;;;;;;29.30;17.67;;;;;;;1.99;100.00;98520.44;2106531;28;20170;-75
2022/01/31 00:15:06;;;;;;;40.20;18.27;;;;;;;2.00;100.00;98514.16;2107114;28;20174;-74
2022/01/31 00:16:15;;;;;;;31.92;18.45;;;;;;;2.01;100.00;98521.00;2106912;28;20574;-74
2022/01/31 00:17:18;;;;;;;35.58;19.10;;;;;;;2.01;100.00;98526.28;2105777;28;20655;-74
2022/01/31 00:18:21;;;;;;;28.50;18.58;;;;;;;2.03;100.00;98516.28;2106191;28;20248;-74
2022/01/31 00:19:23;;;;;;;32.97;19.13;;;;;;;2.01;100.00;98505.22;2106649;28;20250;-74
2022/01/31 00:20:27;;;;;;;31.25;18.52;;;;;;;2.04;100.00;98525.75;2106153;28;20250;-74
2022/01/31 00:21:29;;;;;;;33.15;18.70;;;;;;;2.00;100.00;98529.94;2097894;28;20639;-74
2022/01/31 00:22:36;;;;;;;34.05;18.50;;;;;;;1.98;100.00;98513.59;2106332;28;20185;-74
2022/01/31 00:23:41;;;;;;;29.95;17.02;;;;;;;2.01;100.00;98517.59;2106770;28;20293;-74
2022/01/31 00:24:46;;;;;;;32.38;17.05;;;;;;;2.03;100.00;98542.59;2105431;28;20212;-74
2022/01/31 00:25:48;;;;;;;37.05;18.55;;;;;;;2.02;100.00;98535.75;2106285;28;20182;-74
2022/01/31 00:26:50;;;;;;;32.35;19.05;;;;;;;2.07;100.00;98522.59;2107024;28;20281;-74
2022/01/31 00:27:52;;;;;;;26.92;17.88;;;;;;;2.08;100.00;98518.94;2106195;28;20193;-74
2022/01/31 00:28:59;;;;;;;29.40;18.13;;;;;;;2.15;100.00;98511.59;2097591;28;20564;-74
2022/01/31 00:30:02;;;;;;;24.90;17.80;;;;;;;2.13;100.00;98507.66;2106517;28;20197;-75
2022/01/31 00:31:06;;;;;;;32.60;18.10;;;;;;;2.11;100.00;98505.28;2106289;28;20205;-74
2022/01/31 00:32:11;;;;;;;36.70;18.75;;;;;;;2.14;100.00;98503.97;2105682;28;20197;-74
2022/01/31 00:33:15;;;;;;;37.30;18.88;;;;;;;2.23;100.00;98524.28;2098043;28;20209;-74
2022/01/31 00:34:17;;;;;;;26.92;17.65;;;;;;;2.16;100.00;98513.19;2106250;28;20242;-74
2022/01/31 00:35:19;;;;;;;33.33;18.83;;;;;;;2.10;100.00;98500.28;2105939;28;20233;-73
2022/01/31 00:36:23;;;;;;;29.10;17.25;;;;;;;2.07;100.00;98501.56;2105885;28;20755;-74
2022/01/31 00:37:27;;;;;;;34.85;18.10;;;;;;;2.10;100.00;98519.50;2106825;28;20596;-74
2022/01/31 00:38:32;;;;;;;27.73;17.70;;;;;;;2.09;100.00;98507.38;2106121;28;20209;-74
2022/01/31 00:39:37;;;;;;;27.30;17.27;;;;;;;2.03;100.00;98516.28;2106118;28;20205;-74
2022/01/31 00:40:41;;;;;;;35.17;18.80;;;;;;;1.98;100.00;98513.59;2106231;28;20197;-75
2022/01/31 00:41:44;;;;;;;30.70;18.98;;;;;;;1.90;100.00;98516.72;2105830;28;20198;-75
2022/01/31 00:42:45;;;;;;;39.88;19.65;;;;;;;1.94;100.00;98508.06;2106557;28;20636;-75
2022/01/31 00:43:57;;;;;;;30.70;18.35;;;;;;;1.88;100.00;98513.53;2106928;28;20251;-76
2022/01/31 00:45:11;;;;;;;44.45;18.88;;;;;;;1.82;100.00;98511.91;2105882;28;20667;-75
2022/01/31 00:46:23;;;;;;;33.67;17.35;;;;;;;1.81;100.00;98518.22;2099767;28;20231;-75
2022/01/31 00:47:29;;;;;;;40.30;17.80;;;;;;;1.71;100.00;98529.47;2106488;28;20256;-75
2022/01/31 00:48:34;;;;;;;32.90;17.42;;;;;;;1.57;100.00;98512.53;2105886;28;20227;-75
2022/01/31 00:49:38;;;;;;;32.33;17.15;;;;;;;1.53;100.00;98504.34;2106334;28;20189;-75
2022/01/31 00:50:46;;;;;;;29.50;20.08;;;;;;;1.45;100.00;98510.06;2106844;28;20590;-75
2022/01/31 00:51:52;;;;;;;38.05;20.00;;;;;;;1.36;100.00;98514.97;2106284;28;20225;-76
2022/01/31 00:52:58;;;;;;;40.08;21.27;;;;;;;1.27;100.00;98526.19;2097961;28;20210;-75
2022/01/31 00:53:59;;;;;;;37.58;21.05;;;;;;;1.17;100.00;98520.84;2098667;28;20194;-75
2022/01/31 00:55:02;;;;;;;32.90;21.33;;;;;;;1.11;100.00;98509.47;2097925;28;20199;-75
2022/01/31 00:56:03;;;;;;;43.15;22.38;;;;;;;1.06;100.00;98501.56;2097847;28;20218;-75
2022/01/31 00:57:08;;;;;;;38.95;21.73;;;;;;;1.00;100.00;98508.59;2106290;28;20265;-75
2022/01/31 00:58:15;;;;;;;36.38;23.95;;;;;;;0.99;100.00;98485.97;2107034;28;20193;-75
2022/01/31 00:59:18;;;;;;;36.50;23.52;;;;;;;1.00;100.00;98487.56;2108084;28;20194;-75
2022/01/31 01:00:24;;;;;;;42.65;25.67;;;;;;;0.99;100.00;98498.31;2108356;28;20185;-76
2022/01/31 01:01:27;;;;;;;45.63;24.48;;;;;;;1.03;100.00;98504.66;2108306;28;20217;-76
2022/01/31 01:02:32;;;;;;;41.90;23.55;;;;;;;0.98;100.00;98505.41;2107129;28;20197;-75
2022/01/31 01:03:33;;;;;;;36.70;24.02;;;;;;;1.00;100.00;98513.03;2099936;28;20684;-75
2022/01/31 01:04:37;;;;;;;44.37;23.70;;;;;;;1.01;100.00;98504.91;2099079;28;20555;-75
2022/01/31 01:05:45;;;;;;;47.92;24.90;;;;;;;1.04;100.00;98503.63;2100002;28;20194;-75
2022/01/31 01:06:46;;;;;;;36.88;23.73;;;;;;;1.03;100.00;98500.19;2107444;28;20225;-75
2022/01/31 01:07:52;;;;;;;43.50;23.05;;;;;;;1.07;100.00;98498.69;2107648;28;20645;-75
2022/01/31 01:08:55;;;;;;;43.92;22.83;;;;;;;1.07;100.00;98503.13;2107311;28;20210;-75
2022/01/31 01:09:57;;;;;;;45.42;22.33;;;;;;;1.10;100.00;98486.88;2107653;28;20217;-74
2022/01/31 01:10:59;;;;;;;29.48;21.52;;;;;;;1.13;100.00;98483.78;2099376;28;20194;-75
2022/01/31 01:12:03;;;;;;;43.03;23.23;;;;;;;1.18;100.00;98494.31;2099207;28;20200;-75
2022/01/31 01:13:06;;;;;;;32.35;21.58;;;;;;;1.26;100.00;98487.81;2099373;28;20206;-75
2022/01/31 01:14:11;;;;;;;41.00;22.92;;;;;;;1.26;100.00;98478.09;2107178;28;20307;-75
2022/01/31 01:15:14;;;;;;;35.35;23.15;;;;;;;1.29;100.00;98474.16;2099743;28;20206;-74
2022/01/31 01:16:20;;;;;;;33.55;22.38;;;;;;;1.35;100.00;98475.81;2107818;28;20267;-75
2022/01/31 01:17:22;;;;;;;35.30;23.38;;;;;;;1.37;100.00;98466.63;2099193;28;20602;-75
2022/01/31 01:18:27;;;;;;;34.88;22.60;;;;;;;1.44;100.00;98470.88;2098970;28;20286;-75
2022/01/31 01:19:30;;;;;;;33.05;23.13;;;;;;;1.46;100.00;98464.31;2099763;28;20198;-75
2022/01/31 01:20:35;;;;;;;59.72;23.98;;;;;;;1.50;100.00;98473.31;2099477;28;20191;-75
2022/01/31 01:21:38;;;;;;;38.00;23.05;;;;;;;1.49;100.00;98479.59;2107589;28;20751;-75
2022/01/31 01:22:40;;;;;;;32.42;22.05;;;;;;;1.58;100.00;98514.13;2115941;28;20189;-75
2022/01/31 01:23:41;;;;;;;29.63;21.52;;;;;;;1.67;100.00;98487.09;2108279;28;20189;-75
2022/01/31 01:24:47;;;;;;;35.63;22.40;;;;;;;1.70;100.00;98543.66;2107577;28;20190;-75
2022/01/31 01:25:52;;;;;;;33.92;22.75;;;;;;;1.67;100.00;98516.03;2099391;28;20190;-75
2022/01/31 01:26:58;;;;;;;38.53;22.10;;;;;;;1.64;100.00;98498.09;2107592;28;20280;-75
2022/01/31 01:28:02;;;;;;;34.17;22.00;;;;;;;1.66;100.00;98477.63;2107722;28;20208;-74
2022/01/31 01:29:06;;;;;;;29.17;21.40;;;;;;;1.64;100.00;98494.69;2099510;28;20209;-75
2022/01/31 01:30:11;;;;;;;30.13;21.05;;;;;;;1.64;100.00;98487.59;2107731;28;20644;-74
2022/01/31 01:31:12;;;;;;;33.03;19.35;;;;;;;1.68;100.00;98491.31;2107486;28;20225;-74
2022/01/31 01:32:24;;;;;;;27.00;18.80;;;;;;;1.68;100.00;98491.31;2107602;28;20247;-74
2022/01/31 01:33:28;;;;;;;27.63;18.75;;;;;;;1.71;100.00;98476.88;2107936;28;20185;-75
2022/01/31 01:34:36;;;;;;;27.98;19.40;;;;;;;1.70;100.00;98486.59;2107337;28;20676;-74
2022/01/31 01:35:40;;;;;;;26.55;18.90;;;;;;;1.69;100.00;98468.44;2099715;28;20234;-74
2022/01/31 01:36:45;;;;;;;23.35;18.38;;;;;;;1.67;100.00;98481.84;2107069;28;20573;-73
2022/01/31 01:37:47;;;;;;;31.10;18.33;;;;;;;1.67;100.00;98468.69;2107436;28;20272;-73
2022/01/31 01:38:56;;;;;;;30.08;18.75;;;;;;;1.66;100.00;98503.94;2107431;28;20243;-74
2022/01/31 01:40:00;;;;;;;32.95;19.08;;;;;;;1.64;100.00;98487.59;2106682;28;20210;-73
2022/01/31 01:41:04;;;;;;;33.40;19.27;;;;;;;1.67;100.00;98478.44;2107390;28;20669;-74
2022/01/31 01:42:07;;;;;;;23.60;17.98;;;;;;;1.68;100.00;98483.44;2099283;28;20213;-74
2022/01/31 01:43:11;;;;;;;28.40;19.30;;;;;;;1.70;100.00;98509.47;2099383;28;20201;-73
2022/01/31 01:44:13;;;;;;;21.02;17.70;;;;;;;1.69;100.00;98495.53;2099197;28;20194;-73
2022/01/31 01:45:16;;;;;;;33.72;19.38;;;;;;;1.72;100.00;98494.22;2099261;28;20202;-73
2022/01/31 01:46:18;;;;;;;30.08;18.67;;;;;;;1.77;100.00;98509.25;2099075;28;20206;-74
2022/01/31 01:47:26;;;;;;;25.25;17.98;;;;;;;1.76;100.00;98497.16;2098756;28;20201;-73
2022/01/31 01:48:29;;;;;;;29.38;18.45;;;;;;;1.70;100.00;98499.75;2107545;28;20671;-74
2022/01/31 01:49:36;;;;;;;30.55;17.77;;;;;;;1.69;100.00;98489.47;2107449;28;20186;-74
2022/01/31 01:50:39;;;;;;;28.88;18.35;;;;;;;1.67;100.00;98502.88;2099318;28;20202;-73
2022/01/31 01:51:44;;;;;;;31.67;18.10;;;;;;;1.66;100.00;98508.41;2098080;28;20662;-74
2022/01/31 01:52:47;;;;;;;24.67;17.90;;;;;;;1.69;100.00;98513.16;2099639;28;20251;-74
2022/01/31 01:53:53;;;;;;;30.65;17.70;;;;;;;1.68;100.00;98514.97;2098311;28;20285;-73
2022/01/31 01:54:58;;;;;;;27.42;18.30;;;;;;;1.73;100.00;98511.59;2099476;28;20209;-74
2022/01/31 01:56:02;;;;;;;21.95;18.92;;;;;;;1.74;100.00;98513.19;2099397;28;20678;-74
2022/01/31 01:57:06;;;;;;;24.77;18.15;;;;;;;1.73;100.00;98522.09;2099339;28;20578;-74
2022/01/31 01:58:15;;;;;;;20.67;16.58;;;;;;;1.74;100.00;98520.25;2099231;28;20289;-73
2022/01/31 01:59:18;;;;;;;24.10;17.45;;;;;;;1.84;100.00;98523.78;2100492;28;20202;-73
2022/01/31 02:00:49;;;;;;;18.50;16.58;;;;;;;1.80;100.00;98563.97;2101152;28;20348;-73
2022/01/31 02:02:04;;;;;;;27.58;17.35;;;;;;;1.76;100.00;98513.72;2102630;28;20707;-74
2022/01/31 02:03:08;;;;;;;27.45;16.92;;;;;;;1.83;100.00;98497.75;2099323;28;20205;-74
2022/01/31 02:04:10;;;;;;;28.65;17.30;;;;;;;1.82;100.00;98504.03;2098630;28;20629;-74
2022/01/31 02:05:14;;;;;;;26.30;16.95;;;;;;;1.83;100.00;98505.63;2099461;28;20202;-74
2022/01/31 02:06:20;;;;;;;32.92;17.88;;;;;;;1.84;100.00;98501.94;2098252;28;20218;-74
2022/01/31 02:07:23;;;;;;;31.88;17.88;;;;;;;1.84;100.00;98501.94;2099057;28;20598;-75
2022/01/31 02:08:28;;;;;;;20.85;17.10;;;;;;;1.83;100.00;98505.63;2098631;28;20203;-74
2022/01/31 02:09:32;;;;;;;26.25;17.92;;;;;;;1.80;100.00;98498.22;2099318;28;20194;-74
2022/01/31 02:10:37;;;;;;;22.20;17.27;;;;;;;1.81;100.00;98495.34;2097592;28;20217;-74
2022/01/31 02:11:47;;;;;;;21.40;16.70;;;;;;;1.83;100.00;98471.44;2100182;28;20222;-74
2022/01/31 02:12:51;;;;;;;22.70;17.40;;;;;;;1.84;100.00;98480.91;2098855;28;20205;-73
2022/01/31 02:14:14;;;;;;;23.10;16.92;;;;;;;1.84;100.00;98471.19;2107269;28;20201;-74
2022/01/31 02:15:54;;;;;;;21.00;16.65;;;;;;;1.84;100.00;98468.56;2087361;28;20222;-74
2022/01/31 02:17:12;;;;;;;24.08;17.20;;;;;;;1.85;100.00;98477.25;2082291;28;20252;-74
2022/01/31 02:18:30;;;;;;;25.65;16.77;;;;;;;1.85;100.00;98466.72;2092239;28;20225;-74
2022/01/31 02:19:37;;;;;;;31.17;18.00;;;;;;;1.81;100.00;98476.13;2099493;28;20209;-74
2022/01/31 02:20:56;;;;;;;25.10;17.02;;;;;;;1.79;100.00;98480.88;2100607;28;20224;-73
2022/01/31 02:22:00;;;;;;;25.10;17.45;;;;;;;1.82;100.00;98472.47;2098996;28;20198;-74
2022/01/31 02:23:23;;;;;;;24.92;16.92;;;;;;;1.82;100.00;98468.00;2107651;28;20635;-74
2022/01/31 02:24:33;;;;;;;27.08;17.00;;;;;;;1.85;100.00;98469.34;2107205;28;20190;-74
2022/01/31 02:25:58;;;;;;;24.83;16.95;;;;;;;1.84;100.00;98454.63;2107534;28;20174;-74
2022/01/31 02:27:31;;;;;;;23.27;17.75;;;;;;;1.85;100.00;98461.47;2102032;28;20205;-74
2022/01/31 02:28:37;;;;;;;25.55;17.42;;;;;;;1.84;100.00;98459.88;2107098;28;20213;-74
2022/01/31 02:29:41;;;;;;;27.73;17.40;;;;;;;1.82;100.00;98462.72;2099073;28;20194;-74
2022/01/31 02:30:46;;;;;;;24.10;17.00;;;;;;;1.74;100.00;98444.00;2107322;28;20280;-74
2022/01/31 02:31:49;;;;;;;22.02;17.50;;;;;;;1.74;100.00;98451.91;2106890;28;20202;-74
2022/01/31 02:32:51;;;;;;;22.73;17.60;;;;;;;1.81;100.00;98439.31;2099078;28;20247;-74
2022/01/31 02:33:55;;;;;;;27.83;17.67;;;;;;;1.85;100.00;98440.41;2107037;28;20197;-74
2022/01/31 02:34:59;;;;;;;25.58;17.70;;;;;;;1.82;100.00;98431.16;2106581;28;20197;-74
2022/01/31 02:36:06;;;;;;;32.20;18.35;;;;;;;1.80;100.00;98448.25;2107209;28;20189;-74
2022/01/31 02:37:11;;;;;;;24.67;17.33;;;;;;;1.82;100.00;98438.28;2106478;28;20720;-74
2022/01/31 02:38:16;;;;;;;26.85;18.02;;;;;;;1.86;100.00;98437.53;2098839;28;20680;-74
2022/01/31 02:39:26;;;;;;;25.63;17.33;;;;;;;1.85;100.00;98433.31;2100038;28;20202;-74
2022/01/31 02:40:29;;;;;;;26.90;18.00;;;;;;;1.84;100.00;98444.88;2107170;28;20269;-74
2022/01/31 02:41:49;;;;;;;30.38;18.30;;;;;;;1.83;100.00;98424.91;2107337;28;20204;-74
2022/01/31 02:42:54;;;;;;;32.47;18.38;;;;;;;1.80;100.00;98429.84;2100528;28;20740;-74
2022/01/31 02:44:03;;;;;;;20.90;17.17;;;;;;;1.79;100.00;98415.91;2099666;28;20199;-74
2022/01/31 02:45:14;;;;;;;29.33;17.88;;;;;;;1.79;100.00;98431.69;2099809;28;20268;-74
2022/01/31 02:46:17;;;;;;;22.58;17.33;;;;;;;1.81;100.00;98428.81;2099429;28;20202;-75
2022/01/31 02:47:28;;;;;;;23.92;17.67;;;;;;;1.82;100.00;98425.13;2099531;28;20213;-74
2022/01/31 02:48:35;;;;;;;25.65;18.48;;;;;;;1.79;100.00;98401.97;2099264;28;20237;-74
2022/01/31 02:49:47;;;;;;;24.40;17.65;;;;;;;1.76;100.00;98418.28;2099397;28;20289;-74
2022/01/31 02:50:56;;;;;;;22.77;16.92;;;;;;;1.71;100.00;98411.13;2099776;28;20197;-74
2022/01/31 02:52:02;;;;;;;29.50;17.83;;;;;;;1.73;100.00;98416.13;2099158;28;20618;-74
2022/01/31 02:53:13;;;;;;;22.73;16.88;;;;;;;1.77;100.00;98417.22;2099146;28;20186;-74
2022/01/31 02:54:15;;;;;;;26.65;17.60;;;;;;;1.68;100.00;98419.53;2107318;28;20640;-74
2022/01/31 02:55:17;;;;;;;23.70;17.50;;;;;;;1.69;100.00;98424.53;2106881;28;20190;-74
2022/01/31 02:56:20;;;;;;;28.55;17.35;;;;;;;1.69;100.00;98418.50;2106860;28;20194;-74
2022/01/31 02:57:24;;;;;;;25.35;16.40;;;;;;;1.74;100.00;98441.38;2106399;28;20197;-74
2022/01/31 02:58:28;;;;;;;19.95;15.90;;;;;;;1.72;100.00;98431.13;2099049;28;20198;-74
2022/01/31 02:59:32;;;;;;;20.50;17.05;;;;;;;1.70;100.00;98425.31;2098792;28;20217;-74
2022/01/31 03:00:34;;;;;;;24.77;16.20;;;;;;;1.67;100.00;98418.75;2099078;28;20202;-75
2022/01/31 03:01:59;;;;;;;19.88;17.65;;;;;;;1.72;100.00;98441.63;2107270;28;20196;-74
2022/01/31 03:03:01;;;;;;;24.15;17.52;;;;;;;1.69;100.00;98416.66;2106705;28;20198;-74
2022/01/31 03:04:04;;;;;;;32.15;17.38;;;;;;;1.67;100.00;98429.25;2098752;28;20203;-74
2022/01/31 03:05:07;;;;;;;19.02;16.40;;;;;;;1.63;100.00;98451.81;2098754;28;20202;-75
2022/01/31 03:06:14;;;;;;;27.25;16.73;;;;;;;1.57;100.00;98426.56;2097516;28;20221;-74
2022/01/31 03:07:17;;;;;;;19.83;16.52;;;;;;;1.61;100.00;98440.78;2098767;28;20209;-74
2022/01/31 03:08:20;;;;;;;23.60;17.38;;;;;;;1.59;100.00;98435.00;2098521;28;20186;-74
2022/01/31 03:09:23;;;;;;;23.48;17.38;;;;;;;1.60;100.00;98433.16;2106734;28;20201;-74
2022/01/31 03:10:29;;;;;;;27.67;18.50;;;;;;;1.56;100.00;98437.31;2098945;28;20653;-74
2022/01/31 03:11:32;;;;;;;22.30;17.15;;;;;;;1.49;100.00;98427.03;2098418;28;20226;-74
2022/01/31 03:12:44;;;;;;;23.17;17.10;;;;;;;1.50;100.00;98430.47;2099734;28;20202;-74
2022/01/31 03:13:48;;;;;;;22.45;17.38;;;;;;;1.48;100.00;98420.19;2099314;28;20198;-74
2022/01/31 03:14:52;;;;;;;27.50;17.27;;;;;;;1.49;100.00;98421.00;2098449;28;20210;-74
2022/01/31 03:16:25;;;;;;;29.17;17.65;;;;;;;1.46;100.00;98421.47;2106923;28;20285;-74
2022/01/31 03:17:59;;;;;;;20.33;17.20;;;;;;;1.46;100.00;98410.97;2106164;28;20290;-74
2022/01/31 03:19:01;;;;;;;24.33;17.70;;;;;;;1.41;100.00;98420.41;2099884;28;20286;-74
2022/01/31 03:20:05;;;;;;;25.75;18.00;;;;;;;1.40;100.00;98418.03;2098218;28;20186;-73
2022/01/31 03:21:06;;;;;;;21.23;17.38;;;;;;;1.41;100.00;98415.16;2097540;28;20198;-74
2022/01/31 03:22:09;;;;;;;19.33;16.52;;;;;;;1.41;100.00;98414.38;2098027;28;20240;-74
2022/01/31 03:23:15;;;;;;;20.45;17.65;;;;;;;1.39;100.00;98411.16;2098078;28;20734;-74
2022/01/31 03:24:20;;;;;;;19.92;16.75;;;;;;;1.41;100.00;98412.53;2098240;28;20563;-75
2022/01/31 03:25:25;;;;;;;23.65;17.27;;;;;;;1.47;100.00;98413.34;2107008;28;20170;-74
2022/01/31 03:26:31;;;;;;;22.42;17.17;;;;;;;1.44;100.00;98419.09;2107405;28;20246;-75
2022/01/31 03:27:33;;;;;;;20.33;17.08;;;;;;;1.43;100.00;98420.16;2106173;28;20201;-74
2022/01/31 03:28:40;;;;;;;20.92;16.98;;;;;;;1.42;100.00;98416.72;2106521;28;20197;-73
2022/01/31 03:29:44;;;;;;;26.40;17.77;;;;;;;1.39;100.00;98424.31;2106705;28;20185;-74
2022/01/31 03:30:51;;;;;;;27.98;17.38;;;;;;;1.35;100.00;98407.47;2106122;28;20193;-74
2022/01/31 03:31:58;;;;;;;18.90;17.05;;;;;;;1.38;100.00;98404.34;2106100;28;20679;-74
2022/01/31 03:33:01;;;;;;;30.73;18.58;;;;;;;1.36;100.00;98401.97;2106882;28;20178;-74
2022/01/31 03:34:04;;;;;;;22.10;17.10;;;;;;;1.35;100.00;98407.47;2106200;28;20292;-74
2022/01/31 03:35:08;;;;;;;24.60;17.50;;;;;;;1.35;100.00;98420.63;2097777;28;20209;-74
2022/01/31 03:36:10;;;;;;;21.52;16.90;;;;;;;1.39;100.00;98406.72;2106185;28;20182;-74
2022/01/31 03:37:15;;;;;;;25.17;16.98;;;;;;;1.42;100.00;98402.81;2107317;28;20204;-74
2022/01/31 03:38:22;;;;;;;22.52;16.83;;;;;;;1.36;100.00;98417.72;2106197;28;20688;-74
2022/01/31 03:39:28;;;;;;;24.48;16.75;;;;;;;1.38;100.00;98405.13;2098896;28;20660;-73
2022/01/31 03:40:32;;;;;;;22.23;16.85;;;;;;;1.36;100.00;98409.84;2098647;28;20202;-74
2022/01/31 03:41:37;;;;;;;21.77;17.00;;;;;;;1.29;100.00;98405.84;2106145;28;20202;-74
2022/01/31 03:42:39;;;;;;;26.83;17.40;;;;;;;1.32;100.00;98421.13;2098457;28;20608;-75
2022/01/31 03:43:41;;;;;;;23.38;17.40;;;;;;;1.30;100.00;98396.91;2097879;28;20202;-74
2022/01/31 03:44:49;;;;;;;26.67;17.92;;;;;;;1.29;100.00;98405.84;2098343;28;20205;-74
2022/01/31 03:45:54;;;;;;;27.67;17.60;;;;;;;1.31;100.00;98412.47;2098930;28;20190;-74
2022/01/31 03:46:59;;;;;;;22.15;16.90;;;;;;;1.31;100.00;98407.19;2099427;28;20705;-75
2022/01/31 03:48:05;;;;;;;22.63;17.23;;;;;;;1.42;100.00;98400.97;2098200;28;20190;-74
2022/01/31 03:49:08;;;;;;;23.80;17.38;;;;;;;1.44;100.00;98405.16;2098449;28;20592;-74
2022/01/31 03:50:18;;;;;;;23.15;17.33;;;;;;;1.39;100.00;98400.66;2099226;28;20679;-74
2022/01/31 03:51:25;;;;;;;22.65;17.67;;;;;;;1.35;100.00;98399.59;2098584;28;20222;-74
2022/01/31 03:52:28;;;;;;;26.30;17.20;;;;;;;1.34;100.00;98409.31;2098615;28;20255;-74
2022/01/31 03:53:38;;;;;;;23.67;17.13;;;;;;;1.31;100.00;98388.81;2098070;28;20194;-74
2022/01/31 03:54:44;;;;;;;23.33;17.27;;;;;;;1.38;100.00;98405.13;2098689;28;20194;-74
2022/01/31 03:55:47;;;;;;;25.20;18.23;;;;;;;1.36;100.00;98404.59;2098857;28;20232;-74
2022/01/31 03:56:48;;;;;;;27.17;16.90;;;;;;;1.36;100.00;98395.91;2098385;28;20226;-74
2022/01/31 03:58:11;;;;;;;29.17;17.77;;;;;;;1.37;100.00;98385.16;2092497;28;20201;-74
2022/01/31 03:59:29;;;;;;;22.20;17.05;;;;;;;1.35;100.00;98381.19;2106383;28;20678;-74
2022/01/31 04:00:34;;;;;;;24.35;17.05;;;;;;;1.32;100.00;98377.25;2098609;28;20194;-74
2022/01/31 04:01:40;;;;;;;25.85;17.25;;;;;;;1.31;100.00;98388.00;2106442;28;20205;-74
2022/01/31 04:02:41;;;;;;;23.75;17.60;;;;;;;1.32;100.00;98371.19;2107209;28;20230;-74
2022/01/31 04:03:43;;;;;;;23.80;18.27;;;;;;;1.28;100.00;98365.63;2107063;28;20246;-74
2022/01/31 04:04:46;;;;;;;23.10;18.35;;;;;;;1.30;100.00;98375.91;2107441;28;20521;-74
2022/01/31 04:05:53;;;;;;;26.80;18.15;;;;;;;1.32;100.00;98361.47;2107057;28;20194;-74
2022/01/31 04:06:58;;;;;;;28.70;18.45;;;;;;;1.32;100.00;98356.22;2106774;28;20262;-75
2022/01/31 04:08:01;;;;;;;25.25;17.33;;;;;;;1.35;100.00;98352.28;2107144;28;20212;-74
2022/01/31 04:09:05;;;;;;;28.15;17.40;;;;;;;1.34;100.00;98366.47;2107019;28;20197;-74
2022/01/31 04:10:10;;;;;;;22.75;16.92;;;;;;;1.28;100.00;98372.72;2107150;28;20189;-74
2022/01/31 04:11:11;;;;;;;22.05;16.58;;;;;;;1.29;100.00;98363.81;2107021;28;20189;-74
2022/01/31 04:12:17;;;;;;;19.67;16.92;;;;;;;1.31;100.00;98373.03;2107258;28;20227;-74
2022/01/31 04:13:18;;;;;;;27.73;17.48;;;;;;;1.36;100.00;98364.38;2107383;28;20616;-74
2022/01/31 04:14:26;;;;;;;24.48;17.05;;;;;;;1.33;100.00;98354.38;2107192;28;20544;-74
2022/01/31 04:15:30;;;;;;;29.38;17.23;;;;;;;1.29;100.00;98371.69;2107163;28;20242;-75
2022/01/31 04:16:31;;;;;;;19.20;16.90;;;;;;;1.32;100.00;98389.59;2106034;28;20197;-74
2022/01/31 04:17:37;;;;;;;24.13;17.30;;;;;;;1.35;100.00;98360.19;2106932;28;20221;-74
2022/01/31 04:18:38;;;;;;;28.85;16.70;;;;;;;1.30;100.00;98366.19;2107016;28;20636;-74
2022/01/31 04:19:43;;;;;;;22.63;17.67;;;;;;;1.32;100.00;98376.47;2107140;28;20524;-74
2022/01/31 04:20:46;;;;;;;23.63;17.40;;;;;;;1.36;100.00;98359.13;2106949;28;20284;-74
2022/01/31 04:21:50;;;;;;;23.30;17.63;;;;;;;1.34;100.00;98361.22;2106778;28;20733;-74
2022/01/31 04:22:59;;;;;;;28.40;17.38;;;;;;;1.37;100.00;98361.50;2107121;28;20200;-74
2022/01/31 04:24:01;;;;;;;26.25;17.23;;;;;;;1.42;100.00;98356.28;2107105;28;20180;-74
2022/01/31 04:25:07;;;;;;;27.70;17.80;;;;;;;1.43;100.00;98367.59;2107057;28;20246;-74
2022/01/31 04:26:12;;;;;;;30.08;17.70;;;;;;;1.42;100.00;98358.13;2107038;28;20181;-74
2022/01/31 04:27:19;;;;;;;23.27;17.80;;;;;;;1.44;100.00;98355.22;2107076;28;20217;-74
2022/01/31 04:28:30;;;;;;;23.13;17.40;;;;;;;1.42;100.00;98360.75;2107318;28;20227;-74
2022/01/31 04:29:34;;;;;;;27.27;17.00;;;;;;;1.45;100.00;98364.69;2107091;28;20177;-73
2022/01/31 04:30:46;;;;;;;24.80;17.10;;;;;;;1.44;100.00;98366.53;2106938;28;20221;-74
2022/01/31 04:31:54;;;;;;;22.02;16.77;;;;;;;1.39;100.00;98350.72;2106987;28;20273;-74
2022/01/31 04:32:57;;;;;;;27.90;16.95;;;;;;;1.36;100.00;98359.13;2106998;28;20288;-74
2022/01/31 04:34:01;;;;;;;32.53;17.38;;;;;;;1.35;100.00;98352.28;2107961;28;20189;-73
2022/01/31 04:35:05;;;;;;;27.45;17.38;;;;;;;1.37;100.00;98352.81;2108489;28;20201;-74
2022/01/31 04:36:14;;;;;;;22.75;16.77;;;;;;;1.32;100.00;98345.72;2108286;28;20186;-74
2022/01/31 04:37:15;;;;;;;23.60;17.92;;;;;;;1.33;100.00;98349.13;2108733;28;20254;-74
2022/01/31 04:38:18;;;;;;;20.53;17.17;;;;;;;1.35;100.00;98352.28;2108744;28;20693;-74
2022/01/31 04:39:19;;;;;;;28.55;17.58;;;;;;;1.28;100.00;98351.72;2108777;28;20905;-74
2022/01/31 04:40:23;;;;;;;27.08;18.52;;;;;;;1.31;100.00;98346.75;2108615;28;20682;-74
2022/01/31 04:41:25;;;;;;;25.35;17.48;;;;;;;1.32;100.00;98361.47;2108741;28;20246;-74
2022/01/31 04:42:28;;;;;;;26.05;18.63;;;;;;;1.32;100.00;98358.06;2108738;28;20190;-74
2022/01/31 04:43:29;;;;;;;22.33;17.80;;;;;;;1.32;100.00;98350.19;2108707;28;20189;-74
2022/01/31 04:44:34;;;;;;;21.43;17.60;;;;;;;1.27;100.00;98350.13;2108706;28;20699;-74
2022/01/31 04:45:35;;;;;;;25.60;17.90;;;;;;;1.34;100.00;98350.72;2108632;28;20190;-74
2022/01/31 04:46:40;;;;;;;32.78;19.02;;;;;;;1.36;100.00;98354.66;2108700;28;20250;-74
2022/01/31 04:47:42;;;;;;;25.35;18.30;;;;;;;1.40;100.00;98350.50;2108663;28;20231;-74
2022/01/31 04:48:49;;;;;;;23.10;18.53;;;;;;;1.36;100.00;98352.03;2108892;28;20197;-75
2022/01/31 04:49:51;;;;;;;24.35;16.90;;;;;;;1.36;100.00;98335.47;2108633;28;20182;-74
2022/01/31 04:50:56;;;;;;;24.65;17.92;;;;;;;1.31;100.00;98338.09;2108082;28;20197;-72
2022/01/31 04:51:59;;;;;;;28.02;17.88;;;;;;;1.25;100.00;98336.47;2108652;28;20266;-74
2022/01/31 04:53:03;;;;;;;24.23;18.00;;;;;;;1.26;100.00;98327.53;2108735;28;20723;-74
2022/01/31 04:54:04;;;;;;;27.20;18.60;;;;;;;1.23;100.00;98330.69;2108718;28;20236;-74
2022/01/31 04:55:11;;;;;;;26.60;18.60;;;;;;;1.24;100.00;98319.13;2108544;28;20189;-74
2022/01/31 04:56:16;;;;;;;27.42;17.88;;;;;;;1.24;100.00;98334.88;2108551;28;20201;-74
2022/01/31 04:57:19;;;;;;;31.65;18.40;;;;;;;1.19;100.00;98325.13;2108791;28;20197;-75
2022/01/31 04:58:21;;;;;;;32.17;19.02;;;;;;;1.18;100.00;98325.38;2108434;28;20652;-74
2022/01/31 04:59:25;;;;;;;22.33;17.77;;;;;;;1.15;100.00;98324.06;2108576;28;20201;-74
2022/01/31 05:00:28;;;;;;;29.58;18.60;;;;;;;1.13;100.00;98324.31;2108491;28;20785;-74
2022/01/31 05:01:34;;;;;;;35.05;19.05;;;;;;;1.15;100.00;98324.06;2108397;28;20255;-74
2022/01/31 05:02:38;;;;;;;28.05;18.52;;;;;;;1.09;100.00;98320.59;2108461;28;20214;-74